DIRECCIÓN GENERAL DE AERONÁUTICA CIVIL
DIRECCIÓN METEOROLÓGICA DE CHILE
INFORMACIÓN METAR Y TAF

FIR SANTIAGO

Estación: SCSE
METAR SCSE 012200Z 27003KT 8000 SCT008 OVC012 16/14 Q1015=

TAF SCSE 012226Z 0200/0300 28004KT 9999 BKN010 TX19/0219Z TN15/0210Z TEMPO 0202/0206 11004KT 6000 BKN006 TEMPO 0207/0212 11004KT 4000 -DZ BR BKN006 BECMG 0215/0217 29008KT BKN015 BECMG 0219/0221 SCT018=

Estación: SCER
NIL=

NIL=

Estación: SCRD
METAR SCRD 012200Z 19008KT CAVOK 23/05 Q1015=

TAF SCRD 011045Z 0112/0124 15003KT CAVOK TX22/0119Z TN08/0112Z BECMG 0116/0118 18010KT=

Estación: SCVM
METAR SCVM 012200Z 34009KT CAVOK 21/09 Q1014=

TAF SCVM 012227Z 0200/0300 33007KT CAVOK TX21/0219Z TN10/0210Z BECMG 0201/0203 00000KT BECMG 0208/0210 BKN010 TEMPO 0208/0213 33004KT 0500 FG BKN004 BECMG 0213/0215 33009KT BKN015 BECMG 0215/0217 SCT018 BECMG 0217/0219 CAVOK=

Estación: SCTB
METAR SCTB 012200Z 22005KT CAVOK 28/08 Q1015=

TAF SCTB 011045Z 0112/0124 VRB02KT CAVOK TX30/0119Z TN12/0112Z BECMG 0113/0115 22006KT=

Estación: SCEL
METAR SCEL 012200Z 22010KT CAVOK 29/04 Q1014 NOSIG=

TAF SCEL 012227Z 0200/0300 22012KT CAVOK TX29/0219Z TN11/0210Z BECMG 0201/0203 16004KT BECMG 0204/0206 VRB02KT TEMPO 0207/0213 16004KT 8000 BECMG 0214/0216 17006KT BECMG 0218/0220 19012KT=

Estación: SCSN
METAR SCSN 012200Z 25004KT 200V280 CAVOK 19/12 Q1014=

TAF AMD SCSN 011220Z 0113/0124 VRB02KT 0500 FG BKN003 TX23/0119Z TN08 /0112Z TEMPO 0113/0115 11004KT 4000 BR SCT008 BECMG 0116/0118 24010KT CAVOK=

Estación: SCRG
METAR SCRG 012000Z 15010KT CAVOK 27/09 Q1014=

TAF SCRG 011046Z 0112/0124 16010KT CAVOK TX28/0119Z TN12/0112Z TEMPO 0112/0115 7000=

Estación: SCIC
METAR SCIC 012200Z 18007KT CAVOK 25/02 Q1014=

TAF SCIC 011046Z 0112/0124 18008KT CAVOK TX27/0119Z TN08/0112Z BECMG 0115/0117 20011KT=

Estación: SCCH
METAR SCCH 012200Z 20004KT CAVOK 24/06 Q1016=

TAF SCCH 011030Z 0112/0124 20010KT CAVOK TX24/0119Z TN08/0112Z=

Estación: SCIE
METAR SCIE 012200Z 23009KT CAVOK 18/12 Q1017=

TAF SCIE 012228Z 0200/0300 23008KT CAVOK TX21/0219Z TN07/0210Z BECMG 0203/0205 21004KT BKN012 TEMPO 0207/0211 14004KT 0500 -DZ FG BKN002 BECMG 0213/0215 23008KT BECMG 0216/0218 SCT018=

Estación: SCGE
METAR SCGE 012100Z 35006KT CAVOK 25/10 Q1017=

TAF SCGE 011047Z 0112/0124 19010KT CAVOK TX23/0119Z TN08/0112Z BECMG 0115/0117 19018KT BECMG 0118/0120 BKN015=


Volver